Planet Ace — 3EYF9 — position and weather

sailwx.info

Track history (hours):
 
Tides and Currents Weather Stations Pressure Air Temp Water Temp Dewpoint Dewpoint Depression Visibility Wind Speed Wind Dir Waves Ship Positions

Planet Ace

Last reported at 2015-Sep-04 02:33 UTC. Time now 2015-Sep-04 10:31 UTC.
Position N 39°47' E 001°08'.

Length 188 m; beam 28.2 m.

Type: Cargo ship. MMSI: 352168000.

Date/timePositionNaut miles runAvg speedWind from/ knotsBaromVisibWave heightAir tempDewpointWater temp
2015-Sep-04 02:33N 39°47' E 001°08'1514.9
2015-Sep-04 01:33N 40°00' E 001°17'1515.5
2015-Sep-04 00:34N 40°14' E 001°26'1615.9
2015-Sep-03 23:33N 40°28' E 001°36'1615.9
2015-Sep-03 22:33N 40°42' E 001°46'1615.8
2015-Sep-03 21:33N 40°56' E 001°56'2015.4
2015-Sep-03 20:15N 41°14' E 002°09'2 0.1
2015-Sep-03 00:33N 41°12' E 002°08'1716.5
2015-Sep-02 23:33N 40°57' E 001°58'1717.1
2015-Sep-02 22:33N 40°42' E 001°48'1717.0
2015-Sep-02 21:33N 40°27' E 001°38'1717.3
2015-Sep-02 20:33N 40°12' E 001°27'1817.8
2015-Sep-02 19:33N 39°56' E 001°17'14317.4
2015-Sep-02 11:19N 37°52' W 000°14'1317.2
2015-Sep-02 10:33N 37°41' W 000°23'1716.9
2015-Sep-02 09:32N 37°28' W 000°38'1716.8
2015-Sep-02 08:33N 37°17' W 000°54'  
Track history (hours):
 
Tides and Currents Weather Stations Pressure Air Temp Water Temp Dewpoint Dewpoint Depression Visibility Wind Speed Wind Dir Waves Ship Positions

Planet Ace

Last reported at 2015-Sep-04 02:33 UTC. Time now 2015-Sep-04 10:31 UTC.
Position N 39°47' E 001°08'.

Length 188 m; beam 28.2 m.

Type: Cargo ship. MMSI: 352168000.

Date/timePositionNaut miles runAvg speedWind from/ knotsBaromVisibWave heightAir tempDewpointWater temp
2015-Sep-04 02:33N 39°47' E 001°08'1514.9
2015-Sep-04 01:33N 40°00' E 001°17'1515.5
2015-Sep-04 00:34N 40°14' E 001°26'1615.9
2015-Sep-03 23:33N 40°28' E 001°36'1615.9
2015-Sep-03 22:33N 40°42' E 001°46'1615.8
2015-Sep-03 21:33N 40°56' E 001°56'2015.4
2015-Sep-03 20:15N 41°14' E 002°09'2 0.1
2015-Sep-03 00:33N 41°12' E 002°08'1716.5
2015-Sep-02 23:33N 40°57' E 001°58'1717.1
2015-Sep-02 22:33N 40°42' E 001°48'1717.0
2015-Sep-02 21:33N 40°27' E 001°38'1717.3
2015-Sep-02 20:33N 40°12' E 001°27'1817.8
2015-Sep-02 19:33N 39°56' E 001°17'14317.4
2015-Sep-02 11:19N 37°52' W 000°14'1317.2
2015-Sep-02 10:33N 37°41' W 000°23'1716.9
2015-Sep-02 09:32N 37°28' W 000°38'1716.8
2015-Sep-02 08:33N 37°17' W 000°54'  

Dump ship's entire track history